Time;durP1;ratioP1;P1;durP2;ratioP2;P2;SDS_P1;SDS_P2;PMS_P1;PMS_P2;Temp;Humidity;BMP_temperature;BMP_pressure;BME280_temperature;BME280_humidity;BME280_pressure;Samples;Min_cycle;Max_cycle;Signal;HPM_P1;HPM_P2
2021/09/30 00:02:13;;;;;;;5.63;1.87;;;11.00;90.50;;;;;;5096787;28;20704;-83
2021/09/30 00:04:40;;;;;;;6.60;2.07;;;10.90;90.30;;;;;;5096684;28;20199;-82
2021/09/30 00:07:07;;;;;;;7.23;1.93;;;11.00;90.20;;;;;;5114586;28;20568;-82
2021/09/30 00:09:39;;;;;;;5.03;1.80;;;11.10;90.30;;;;;;5096805;28;20200;-82
2021/09/30 00:12:10;;;;;;;5.37;2.20;;;10.90;89.30;;;;;;5114858;28;20167;-82
2021/09/30 00:14:53;;;;;;;7.53;2.10;;;11.00;89.30;;;;;;5114864;28;20253;-81
2021/09/30 00:36:16;;;;;;;6.40;1.70;;;10.70;91.50;;;;;;5115450;28;20175;-82
2021/09/30 00:48:01;;;;;;;5.43;2.03;;;10.70;92.00;;;;;;5114649;28;20258;-82
2021/09/30 00:52:46;;;;;;;8.77;2.00;;;10.80;92.50;;;;;;5114619;28;20171;-81
2021/09/30 01:33:38;;;;;;;4.80;2.07;;;10.80;91.70;;;;;;5115446;28;20652;-81
2021/09/30 02:20:26;;;;;;;6.00;2.50;;;10.20;95.40;;;;;;5113833;28;20586;-82
2021/09/30 02:23:24;;;;;;;7.80;3.03;;;10.40;95.00;;;;;;5096307;28;20221;-82
2021/09/30 02:26:14;;;;;;;8.73;2.87;;;10.20;95.30;;;;;;5135755;28;20171;-81
2021/09/30 02:58:47;;;;;;;5.70;2.50;;;10.20;96.90;;;;;;5117023;28;20243;-83
2021/09/30 03:01:22;;;;;;;5.37;2.20;;;10.00;96.50;;;;;;5117663;28;20198;-83
2021/09/30 03:03:51;;;;;;;10.27;2.60;;;9.90;96.60;;;;;;5126860;28;20235;-82
2021/09/30 03:06:19;;;;;;;5.03;2.53;;;9.90;97.40;;;;;;5127250;28;20171;-83
2021/09/30 03:08:49;;;;;;;6.60;2.50;;;9.90;97.70;;;;;;5125470;28;20175;-83
2021/09/30 03:11:19;;;;;;;5.20;2.20;;;9.90;97.30;;;;;;5116325;28;20195;-84
2021/09/30 03:13:46;;;;;;;7.00;2.47;;;10.00;97.50;;;;;;5098088;28;20549;-82
2021/09/30 03:24:23;;;;;;;5.73;2.33;;;9.70;98.50;;;;;;5115966;28;20198;-84
2021/09/30 03:26:49;;;;;;;5.57;2.40;;;9.70;98.00;;;;;;5097727;28;20634;-84
2021/09/30 03:29:16;;;;;;;7.57;2.57;;;9.80;97.60;;;;;;5115819;28;20203;-83
2021/09/30 03:31:43;;;;;;;5.10;2.53;;;9.70;97.10;;;;;;5097428;28;20177;-84
2021/09/30 03:34:09;;;;;;;9.93;3.10;;;9.60;97.70;;;;;;5096187;28;20639;-84
2021/09/30 03:36:35;;;;;;;6.43;3.40;;;9.60;98.00;;;;;;5097408;28;20310;-84
2021/09/30 03:39:01;;;;;;;5.03;2.33;;;9.80;98.60;;;;;;5115394;28;20170;-83
2021/09/30 03:41:27;;;;;;;10.20;2.67;;;9.90;97.60;;;;;;5115394;28;20576;-83
2021/09/30 03:43:53;;;;;;;7.70;2.33;;;9.80;97.30;;;;;;5102933;28;20212;-83
2021/09/30 03:46:18;;;;;;;6.60;2.70;;;9.70;96.80;;;;;;5098424;28;20186;-83
2021/09/30 03:48:53;;;;;;;9.30;3.33;;;9.60;97.30;;;;;;5097633;28;20171;-83
2021/09/30 03:51:38;;;;;;;5.80;2.57;;;9.60;97.50;;;;;;5098719;28;20217;-83
2021/09/30 03:57:02;;;;;;;5.67;2.47;;;9.70;97.50;;;;;;5116200;28;20622;-82
2021/09/30 03:59:28;;;;;;;6.83;2.50;;;9.80;96.70;;;;;;5097368;28;20178;-84
2021/09/30 04:02:02;;;;;;;8.97;2.60;;;9.60;96.40;;;;;;5097633;28;20669;-83
2021/09/30 04:04:36;;;;;;;6.37;2.70;;;9.70;96.60;;;;;;5097141;28;20261;-83
2021/09/30 04:07:08;;;;;;;7.40;2.30;;;9.60;96.20;;;;;;5115196;28;20614;-82
2021/09/30 04:09:36;;;;;;;6.33;2.97;;;9.50;97.10;;;;;;5114819;28;20705;-84
2021/09/30 04:12:10;;;;;;;9.77;2.67;;;9.50;97.50;;;;;;5096493;28;20566;-82
2021/09/30 04:14:36;;;;;;;7.37;2.70;;;9.40;98.00;;;;;;5096706;28;20166;-86
2021/09/30 04:17:02;;;;;;;9.10;3.17;;;9.40;98.10;;;;;;5096612;28;20167;-84
2021/09/30 04:19:28;;;;;;;7.70;2.90;;;9.50;98.20;;;;;;5114952;28;20208;-82
2021/09/30 04:21:56;;;;;;;4.97;2.30;;;9.50;98.20;;;;;;5114636;28;20654;-84
2021/09/30 04:24:22;;;;;;;7.20;2.77;;;9.70;97.60;;;;;;5129987;28;20633;-83
2021/09/30 04:26:52;;;;;;;5.10;2.37;;;9.50;97.50;;;;;;5124782;28;20613;-84
2021/09/30 04:29:19;;;;;;;4.43;1.97;;;9.40;97.70;;;;;;5117197;28;20634;-83
2021/09/30 04:31:49;;;;;;;7.13;2.20;;;9.60;97.60;;;;;;5096535;28;20179;-81
2021/09/30 04:34:14;;;;;;;5.60;2.40;;;9.60;96.60;;;;;;5114664;28;20178;-84
2021/09/30 04:36:42;;;;;;;5.47;2.50;;;9.60;96.30;;;;;;5114617;28;20179;-85
2021/09/30 04:39:08;;;;;;;10.27;2.30;;;9.60;95.50;;;;;;5096509;28;20167;-84
2021/09/30 04:41:34;;;;;;;8.07;2.93;;;9.60;95.70;;;;;;5097852;28;20234;-81
2021/09/30 04:44:00;;;;;;;8.80;2.40;;;9.60;96.00;;;;;;5128429;28;20186;-83
2021/09/30 04:46:25;;;;;;;7.17;2.90;;;9.50;96.20;;;;;;5122626;28;20234;-85
2021/09/30 04:48:51;;;;;;;9.47;3.20;;;9.50;96.30;;;;;;5117676;28;20163;-84
2021/09/30 04:51:17;;;;;;;8.27;3.13;;;9.50;95.80;;;;;;5115133;28;20182;-82
2021/09/30 04:53:44;;;;;;;9.00;3.13;;;9.60;95.70;;;;;;5096407;28;20175;-81
2021/09/30 04:56:11;;;;;;;9.87;2.87;;;9.50;96.00;;;;;;5096422;28;20253;-82
2021/09/30 04:58:39;;;;;;;8.83;2.93;;;9.50;95.80;;;;;;5115411;28;20167;-83
2021/09/30 05:01:05;;;;;;;8.27;2.60;;;9.50;95.80;;;;;;5115750;28;20195;-81
2021/09/30 05:03:31;;;;;;;13.83;3.00;;;9.60;95.20;;;;;;5102315;28;20231;-85
2021/09/30 05:05:57;;;;;;;7.90;2.30;;;9.50;95.60;;;;;;5119700;28;20497;-83
2021/09/30 05:08:22;;;;;;;11.47;3.00;;;9.40;96.20;;;;;;5095618;28;20178;-85
2021/09/30 05:10:50;;;;;;;9.90;3.10;;;9.50;96.20;;;;;;5095904;28;20179;-84
2021/09/30 05:13:23;;;;;;;10.90;2.93;;;9.60;95.50;;;;;;5095677;28;20630;-84
2021/09/30 05:15:49;;;;;;;11.67;2.60;;;9.60;95.30;;;;;;5095768;28;20205;-84
2021/09/30 05:18:15;;;;;;;9.30;2.67;;;9.60;94.70;;;;;;5095616;28;20225;-85
2021/09/30 05:20:41;;;;;;;13.00;3.27;;;9.70;93.70;;;;;;5095556;28;20214;-84
2021/09/30 05:23:07;;;;;;;11.17;3.03;;;9.70;92.40;;;;;;5096779;28;20186;-84
2021/09/30 05:25:33;;;;;;;10.90;3.40;;;9.70;91.80;;;;;;5097112;28;20213;-81
2021/09/30 05:27:58;;;;;;;10.47;3.40;;;9.70;92.30;;;;;;5114385;28;20187;-82
2021/09/30 05:30:24;;;;;;;8.83;3.10;;;9.60;92.00;;;;;;5095479;28;20544;-84
2021/09/30 05:32:50;;;;;;;10.67;3.20;;;9.50;92.70;;;;;;5095279;28;20174;-83
2021/09/30 05:35:17;;;;;;;9.60;3.27;;;9.50;94.10;;;;;;5094453;28;20245;-83
2021/09/30 05:37:43;;;;;;;12.73;3.50;;;9.60;94.80;;;;;;5113963;28;20171;-85
2021/09/30 05:40:14;;;;;;;9.83;3.40;;;9.40;95.20;;;;;;5095482;28;20167;-83
2021/09/30 05:42:41;;;;;;;15.90;3.30;;;9.40;95.70;;;;;;5093208;28;20176;-84
2021/09/30 05:45:09;;;;;;;11.13;3.53;;;9.40;96.20;;;;;;5074340;28;20255;-83
2021/09/30 05:47:35;;;;;;;16.20;4.40;;;9.40;96.30;;;;;;5082864;28;20262;-81
2021/09/30 05:50:01;;;;;;;15.23;2.90;;;9.40;96.30;;;;;;5102043;28;20200;-82
2021/09/30 05:52:26;;;;;;;10.63;3.40;;;9.50;96.10;;;;;;5082622;28;20175;-82
2021/09/30 05:54:52;;;;;;;7.50;2.87;;;9.30;96.50;;;;;;5108790;28;20182;-81
2021/09/30 05:57:17;;;;;;;7.13;2.87;;;9.40;96.80;;;;;;5109106;28;20527;-83
2021/09/30 05:59:43;;;;;;;7.57;2.90;;;9.30;96.70;;;;;;5099482;28;20191;-81
2021/09/30 06:04:13;;;;;;;8.30;2.57;;;9.40;96.90;;;;;;5099550;28;20222;-82
2021/09/30 06:10:51;;;;;;;6.77;2.67;;;9.50;96.10;;;;;;5097662;28;20216;-82
2021/09/30 06:16:12;;;;;;;12.60;2.80;;;9.50;95.90;;;;;;5051915;28;20538;-83
2021/09/30 06:18:38;;;;;;;6.57;2.40;;;9.50;96.40;;;;;;5059256;28;20180;-84
2021/09/30 06:21:06;;;;;;;9.40;2.50;;;9.70;96.10;;;;;;5059682;28;20208;-85
2021/09/30 06:23:31;;;;;;;5.97;2.20;;;9.60;95.80;;;;;;5074496;28;20587;-83
2021/09/30 06:25:58;;;;;;;9.60;3.47;;;9.70;95.30;;;;;;5095146;28;20543;-82
2021/09/30 06:28:24;;;;;;;9.50;3.43;;;9.70;95.00;;;;;;5077154;28;20563;-83
2021/09/30 06:30:51;;;;;;;7.60;2.73;;;9.70;95.10;;;;;;5095041;28;20271;-85
2021/09/30 06:33:17;;;;;;;10.40;2.97;;;9.70;95.00;;;;;;5077421;28;20187;-84
2021/09/30 06:35:43;;;;;;;11.60;3.03;;;9.70;95.20;;;;;;5075505;28;20183;-86
2021/09/30 06:38:08;;;;;;;6.07;2.57;;;9.70;95.00;;;;;;5076728;28;20172;-85
2021/09/30 06:40:34;;;;;;;12.77;3.60;;;9.80;95.00;;;;;;5093793;28;20259;-84
2021/09/30 06:43:01;;;;;;;9.10;2.87;;;9.90;94.40;;;;;;5095461;28;20192;-83
2021/09/30 06:45:27;;;;;;;11.47;3.27;;;10.00;93.10;;;;;;5077265;28;20171;-85
2021/09/30 06:47:53;;;;;;;8.93;3.10;;;10.10;91.90;;;;;;5095764;28;20164;-83
2021/09/30 06:50:19;;;;;;;8.97;3.37;;;10.30;90.40;;;;;;5079003;28;20255;-84
2021/09/30 06:52:45;;;;;;;8.03;3.00;;;10.40;88.20;;;;;;5077543;28;20182;-85
2021/09/30 06:55:12;;;;;;;11.87;3.00;;;10.30;87.10;;;;;;5095433;28;20525;-83
2021/09/30 06:57:38;;;;;;;13.33;3.60;;;10.30;87.80;;;;;;5095281;28;20178;-84
2021/09/30 07:00:06;;;;;;;12.10;3.47;;;10.40;88.40;;;;;;5095564;28;20160;-85
2021/09/30 07:02:42;;;;;;;8.77;2.80;;;10.20;88.80;;;;;;5095605;28;20178;-84
2021/09/30 07:05:10;;;;;;;7.30;2.60;;;10.30;89.50;;;;;;5077314;28;20676;-83
2021/09/30 07:07:36;;;;;;;9.00;2.70;;;10.30;88.80;;;;;;5095085;28;20193;-85
2021/09/30 07:10:08;;;;;;;8.10;3.50;;;10.40;88.40;;;;;;5076591;28;20566;-84
2021/09/30 07:12:34;;;;;;;9.67;3.00;;;10.50;87.80;;;;;;5095249;28;20167;-82
2021/09/30 07:14:59;;;;;;;8.83;3.20;;;10.70;85.60;;;;;;5077544;28;20990;-85
2021/09/30 07:17:25;;;;;;;8.67;2.70;;;10.80;81.90;;;;;;5095152;28;20172;-84
2021/09/30 07:19:51;;;;;;;13.60;3.03;;;10.90;77.80;;;;;;5095199;28;20607;-84
2021/09/30 07:22:17;;;;;;;11.17;3.80;;;10.90;77.90;;;;;;5095562;28;20207;-80
2021/09/30 07:24:43;;;;;;;10.50;3.37;;;11.00;76.60;;;;;;5085815;28;20213;-86
2021/09/30 07:27:09;;;;;;;7.63;2.70;;;10.90;75.30;;;;;;5093294;28;20179;-83
2021/09/30 07:29:35;;;;;;;11.10;2.97;;;11.00;75.70;;;;;;5079408;28;20183;-83
2021/09/30 07:32:03;;;;;;;5.90;2.60;;;11.00;74.80;;;;;;5080231;28;20714;-84
2021/09/30 07:34:33;;;;;;;10.97;3.27;;;10.80;71.30;;;;;;5096056;28;20615;-83
2021/09/30 07:37:01;;;;;;;10.37;3.37;;;11.30;72.00;;;;;;5077821;28;20214;-84
2021/09/30 07:39:29;;;;;;;11.60;2.80;;;11.10;71.80;;;;;;5097248;28;20195;-83
2021/09/30 07:41:56;;;;;;;9.57;3.07;;;11.20;68.60;;;;;;5094913;28;20252;-83
2021/09/30 07:44:22;;;;;;;8.77;3.23;;;11.30;65.10;;;;;;5094754;28;20179;-83
2021/09/30 07:46:49;;;;;;;12.87;3.03;;;11.60;59.60;;;;;;5094635;28;20532;-86
2021/09/30 07:49:15;;;;;;;13.03;3.77;;;11.70;57.50;;;;;;5096384;28;20167;-81
2021/09/30 07:51:41;;;;;;;9.10;3.10;;;11.70;54.20;;;;;;5082774;28;20493;-82
2021/09/30 07:54:08;;;;;;;9.57;2.90;;;11.70;53.80;;;;;;5107996;28;20175;-84
2021/09/30 07:56:33;;;;;;;10.13;3.77;;;11.70;53.80;;;;;;5097053;28;20167;-84
2021/09/30 07:59:05;;;;;;;8.90;3.20;;;11.80;50.40;;;;;;5096724;28;20182;-84
2021/09/30 08:01:32;;;;;;;9.57;4.27;;;11.80;52.30;;;;;;5093179;28;20195;-84
2021/09/30 08:03:59;;;;;;;9.83;3.20;;;11.90;49.30;;;;;;5094640;28;20213;-84
2021/09/30 08:06:25;;;;;;;10.67;3.67;;;12.00;44.00;;;;;;5094140;28;20672;-83
2021/09/30 08:08:51;;;;;;;10.43;3.50;;;12.10;46.30;;;;;;5094496;28;20167;-84
2021/09/30 08:11:17;;;;;;;10.63;3.70;;;12.20;44.40;;;;;;5075906;28;20171;-86
2021/09/30 08:13:42;;;;;;;10.47;3.10;;;12.20;41.60;;;;;;5093923;28;20516;-86
2021/09/30 08:16:08;;;;;;;11.13;3.33;;;12.30;39.80;;;;;;5094307;28;20168;-85
2021/09/30 08:18:34;;;;;;;10.17;3.10;;;12.20;37.10;;;;;;5075873;28;20180;-84
2021/09/30 08:21:00;;;;;;;10.90;3.67;;;12.30;38.40;;;;;;5093191;28;20276;-85
2021/09/30 08:23:26;;;;;;;10.23;3.07;;;12.10;41.00;;;;;;5093938;28;20184;-84
2021/09/30 08:25:52;;;;;;;12.83;4.60;;;12.20;39.70;;;;;;5094124;28;20175;-83
2021/09/30 08:28:20;;;;;;;15.13;7.30;;;12.30;39.00;;;;;;5077757;28;20212;-85
2021/09/30 08:30:50;;;;;;;12.30;4.50;;;12.50;36.40;;;;;;5093768;28;20642;-85
2021/09/30 08:33:18;;;;;;;11.23;3.40;;;12.70;30.00;;;;;;5094403;28;20195;-82
2021/09/30 08:35:44;;;;;;;10.17;3.07;;;12.80;28.10;;;;;;5093753;28;20295;-85
2021/09/30 08:38:09;;;;;;;12.33;4.03;;;12.80;26.40;;;;;;5093785;28;20175;-84
2021/09/30 08:40:35;;;;;;;13.67;4.20;;;12.90;22.10;;;;;;5074523;28;20694;-83
2021/09/30 08:43:01;;;;;;;9.73;3.73;;;12.90;26.00;;;;;;5075084;28;20513;-84
2021/09/30 08:45:27;;;;;;;13.00;4.33;;;12.90;23.60;;;;;;5093830;28;20924;-85
2021/09/30 08:47:57;;;;;;;13.37;5.90;;;13.00;21.30;;;;;;5093958;28;20251;-83
2021/09/30 08:50:23;;;;;;;22.17;8.43;;;13.00;20.30;;;;;;5075380;28;20171;-83
2021/09/30 08:52:49;;;;;;;19.50;8.17;;;13.00;23.30;;;;;;5075011;28;20224;-85
2021/09/30 08:55:16;;;;;;;19.43;7.37;;;13.00;22.20;;;;;;5075921;28;20197;-85
2021/09/30 08:57:47;;;;;;;32.40;10.90;;;13.10;20.20;;;;;;5093216;28;20171;-82
2021/09/30 09:00:15;;;;;;;9.73;3.90;;;13.10;19.80;;;;;;5093970;28;20167;-86
2021/09/30 09:02:49;;;;;;;24.30;10.13;;;13.10;18.50;;;;;;5075598;28;20180;-83
2021/09/30 09:05:15;;;;;;;20.17;7.50;;;13.20;19.00;;;;;;5092816;28;20396;-85
2021/09/30 09:07:58;;;;;;;16.00;5.47;;;13.20;20.00;;;;;;5093385;28;20171;-84
2021/09/30 09:10:31;;;;;;;18.33;7.00;;;13.30;14.60;;;;;;5093512;28;20190;-83
2021/09/30 09:13:07;;;;;;;16.93;5.93;;;13.30;13.20;;;;;;5075158;28;20175;-86
2021/09/30 09:15:37;;;;;;;17.73;5.43;;;13.40;10.00;;;;;;5074522;28;20202;-80
2021/09/30 09:18:12;;;;;;;13.97;4.97;;;13.50;9.90;;;;;;5074953;28;20225;-81
2021/09/30 09:20:38;;;;;;;12.77;3.67;;;13.60;5.10;;;;;;5075529;28;20210;-82
2021/09/30 09:23:03;;;;;;;9.73;4.43;;;13.80;3.70;;;;;;5075296;28;20516;-83
2021/09/30 09:25:30;;;;;;;10.20;4.47;;;13.70;1.00;;;;;;5076058;28;20631;-83
2021/09/30 09:27:57;;;;;;;10.60;3.63;;;13.70;4.00;;;;;;5094861;28;20190;-84
2021/09/30 09:30:23;;;;;;;8.60;4.03;;;13.70;4.50;;;;;;5076683;28;20167;-83
2021/09/30 09:33:09;;;;;;;10.27;3.20;;;13.90;1.90;;;;;;5092680;28;20179;-82
2021/09/30 09:36:06;;;;;;;10.80;4.10;;;13.90;5.00;;;;;;5074811;28;20657;-82
2021/09/30 09:38:54;;;;;;;11.97;3.33;;;13.90;2.20;;;;;;5074841;28;20222;-83
2021/09/30 09:41:38;;;;;;;10.07;3.87;;;13.90;2.70;;;;;;5091723;28;20221;-86
2021/09/30 09:44:05;;;;;;;10.13;3.90;;;14.00;1.00;;;;;;5074503;28;20529;-85
2021/09/30 09:46:37;;;;;;;13.17;4.87;;;14.10;1.00;;;;;;5074497;28;20171;-82
2021/09/30 09:49:19;;;;;;;12.07;5.70;;;14.00;1.40;;;;;;5093493;28;20246;-83
2021/09/30 09:51:51;;;;;;;13.47;6.27;;;14.00;5.30;;;;;;5075094;28;20207;-85
2021/09/30 09:54:19;;;;;;;17.30;7.80;;;14.20;1.90;;;;;;5074712;28;20171;-83
2021/09/30 09:56:46;;;;;;;17.47;7.50;;;14.40;1.00;;;;;;5092496;28;20164;-84
2021/09/30 09:59:13;;;;;;;16.63;8.40;;;14.30;1.00;;;;;;5073506;28;20495;-83
2021/09/30 10:01:44;;;;;;;17.07;7.87;;;14.30;1.00;;;;;;5092514;28;20222;-85
2021/09/30 10:04:11;;;;;;;17.23;7.77;;;14.30;1.00;;;;;;5093330;28;20168;-85
2021/09/30 10:06:38;;;;;;;13.77;8.00;;;14.30;1.00;;;;;;5094009;28;20164;-83
2021/09/30 10:09:06;;;;;;;15.13;7.70;;;14.30;1.00;;;;;;5080892;28;20172;-82
2021/09/30 10:11:33;;;;;;;15.53;7.83;;;14.40;1.00;;;;;;5100859;28;20175;-83
2021/09/30 10:14:02;;;;;;;13.37;7.13;;;14.50;1.00;;;;;;5079264;28;20169;-82
2021/09/30 10:16:29;;;;;;;12.17;6.00;;;14.60;1.00;;;;;;5093894;28;20184;-84
2021/09/30 10:19:04;;;;;;;14.83;5.80;;;14.60;1.00;;;;;;5092764;28;20180;-82
2021/09/30 10:21:31;;;;;;;12.27;5.63;;;14.50;1.00;;;;;;5093962;28;20211;-85
2021/09/30 10:24:12;;;;;;;12.33;5.47;;;14.60;1.00;;;;;;5074882;28;20184;-84
2021/09/30 10:26:44;;;;;;;10.20;4.93;;;14.70;1.00;;;;;;5095032;28;20178;-80
2021/09/30 10:29:30;;;;;;;9.03;4.30;;;14.80;1.00;;;;;;5098648;28;20173;-81
2021/09/30 10:31:57;;;;;;;10.10;4.63;;;14.80;1.00;;;;;;5075612;28;20179;-83
2021/09/30 10:34:30;;;;;;;9.30;4.40;;;14.70;1.00;;;;;;5094278;28;20169;-84
2021/09/30 10:37:15;;;;;;;10.60;4.50;;;14.70;1.00;;;;;;5084825;28;20171;-84
2021/09/30 10:39:42;;;;;;;6.83;3.33;;;15.00;1.00;;;;;;5111492;28;20176;-83
2021/09/30 10:42:55;;;;;;;10.47;4.30;;;14.80;1.00;;;;;;5108139;28;20192;-84
2021/09/30 10:45:24;;;;;;;9.37;3.57;;;14.90;1.00;;;;;;5077229;28;20272;-84
2021/09/30 10:47:50;;;;;;;10.67;3.90;;;14.90;1.00;;;;;;5094963;28;20157;-84
2021/09/30 10:50:16;;;;;;;11.43;3.30;;;14.90;1.00;;;;;;5083847;28;20184;-84
2021/09/30 10:52:54;;;;;;;12.63;3.90;;;15.00;1.00;;;;;;5077345;28;20172;-85
2021/09/30 10:55:27;;;;;;;11.20;4.40;;;15.10;1.00;;;;;;5076727;28;20641;-83
2021/09/30 10:57:56;;;;;;;7.87;3.70;;;15.10;1.00;;;;;;5076412;28;20226;-85
2021/09/30 11:00:22;;;;;;;9.00;4.10;;;15.00;1.00;;;;;;5078550;28;20245;-86
2021/09/30 11:03:00;;;;;;;9.23;3.70;;;15.00;1.00;;;;;;5077436;28;20222;-84
2021/09/30 11:05:30;;;;;;;10.33;4.07;;;15.10;1.00;;;;;;5078327;28;20178;-86
2021/09/30 11:08:25;;;;;;;8.10;3.63;;;15.10;1.00;;;;;;5074860;28;20641;-85
2021/09/30 11:11:03;;;;;;;10.43;4.00;;;14.90;1.00;;;;;;5077419;28;20181;-84
2021/09/30 11:13:56;;;;;;;8.10;3.73;;;14.90;1.00;;;;;;5096098;28;20175;-85
2021/09/30 11:16:41;;;;;;;12.47;3.60;;;14.80;1.00;;;;;;5069226;28;20180;-84
2021/09/30 11:19:24;;;;;;;9.93;3.83;;;14.80;1.00;;;;;;5095565;28;20215;-84
2021/09/30 11:21:50;;;;;;;11.17;4.33;;;14.80;1.00;;;;;;5114945;28;20212;-84
2021/09/30 11:24:26;;;;;;;7.60;3.70;;;14.80;1.00;;;;;;5101377;28;20165;-90
2021/09/30 11:26:51;;;;;;;14.00;4.60;;;14.80;1.00;;;;;;5101531;28;20176;-85
2021/09/30 11:32:07;;;;;;;13.97;4.80;;;14.90;1.00;;;;;;5097391;28;20165;-85
2021/09/30 11:34:41;;;;;;;10.77;4.57;;;14.70;1.00;;;;;;5078562;28;20176;-85
2021/09/30 11:37:24;;;;;;;10.83;5.13;;;14.90;1.00;;;;;;5096296;28;20173;-85
2021/09/30 11:39:52;;;;;;;10.97;4.40;;;15.00;1.00;;;;;;5075309;28;20226;-84
2021/09/30 11:42:21;;;;;;;10.13;3.87;;;15.10;1.00;;;;;;5076984;28;20211;-84
2021/09/30 11:44:59;;;;;;;9.10;4.50;;;15.20;1.00;;;;;;5095325;28;20173;-83
2021/09/30 11:47:26;;;;;;;10.23;3.87;;;15.10;1.00;;;;;;5095090;28;20645;-86
2021/09/30 11:49:52;;;;;;;13.30;4.00;;;15.20;1.00;;;;;;5076214;28;20207;-85
2021/09/30 11:52:21;;;;;;;12.13;4.30;;;15.20;1.00;;;;;;5077406;28;20176;-86
2021/09/30 11:54:47;;;;;;;9.50;4.30;;;15.30;1.00;;;;;;5076033;28;20178;-85
2021/09/30 11:57:24;;;;;;;15.13;7.77;;;15.50;1.00;;;;;;5094638;28;20171;-87
2021/09/30 11:59:50;;;;;;;8.60;4.20;;;15.50;1.00;;;;;;5076557;28;20167;-86
2021/09/30 12:02:17;;;;;;;11.60;3.83;;;15.60;1.00;;;;;;5075147;28;20295;-84
2021/09/30 12:04:47;;;;;;;9.30;3.47;;;15.50;1.00;;;;;;5094571;28;20162;-84
2021/09/30 12:07:21;;;;;;;10.40;3.53;;;15.60;1.00;;;;;;5094569;28;20168;-84
2021/09/30 12:09:49;;;;;;;9.70;3.60;;;15.60;1.00;;;;;;5075817;28;20233;-84
2021/09/30 12:12:16;;;;;;;7.03;2.93;;;15.70;1.00;;;;;;5075745;28;20188;-84
2021/09/30 12:14:48;;;;;;;9.93;3.90;;;15.70;1.00;;;;;;5076272;28;20525;-84
2021/09/30 12:17:16;;;;;;;6.93;2.93;;;15.70;1.00;;;;;;5094369;28;20174;-85
2021/09/30 12:19:45;;;;;;;10.63;3.40;;;15.60;1.00;;;;;;5094202;28;20201;-87
2021/09/30 12:22:17;;;;;;;8.77;3.70;;;15.60;1.00;;;;;;5093737;28;20211;-84
2021/09/30 12:24:49;;;;;;;10.83;3.90;;;15.80;1.00;;;;;;5076141;28;20175;-85
2021/09/30 12:27:15;;;;;;;11.43;3.87;;;15.80;1.00;;;;;;5094233;28;20183;-84
2021/09/30 12:29:46;;;;;;;8.13;3.00;;;15.80;1.00;;;;;;5075891;28;20591;-85
2021/09/30 12:32:16;;;;;;;7.33;2.40;;;15.90;1.00;;;;;;5094051;28;20173;-85
2021/09/30 12:34:59;;;;;;;9.53;2.07;;;15.90;1.00;;;;;;5074612;28;20615;-84
2021/09/30 12:37:36;;;;;;;7.33;2.03;;;15.80;1.00;;;;;;5094942;28;20172;-84
2021/09/30 12:40:19;;;;;;;7.97;2.03;;;15.80;1.00;;;;;;5078323;28;20182;-83
2021/09/30 12:43:30;;;;;;;6.90;1.90;;;15.90;1.00;;;;;;5081352;28;20188;-84
2021/09/30 12:45:56;;;;;;;11.87;2.13;;;16.00;1.00;;;;;;5048316;28;20179;-84
2021/09/30 12:48:24;;;;;;;7.07;2.10;;;16.00;1.00;;;;;;5092434;28;20271;-85
2021/09/30 12:51:13;;;;;;;10.77;2.63;;;16.00;1.00;;;;;;5075510;28;20196;-85
2021/09/30 12:53:45;;;;;;;5.90;2.00;;;16.10;1.00;;;;;;5074692;28;20187;-85
2021/09/30 12:56:13;;;;;;;14.53;2.20;;;16.10;1.00;;;;;;5093653;28;20159;-86
2021/09/30 12:58:41;;;;;;;9.33;2.70;;;16.10;1.00;;;;;;5076238;28;20185;-85
2021/09/30 13:01:28;;;;;;;6.27;1.60;;;16.10;1.00;;;;;;5093869;28;20205;-84
2021/09/30 13:04:13;;;;;;;10.47;2.23;;;16.20;1.00;;;;;;5094216;28;20164;-84
2021/09/30 13:06:49;;;;;;;6.43;2.10;;;16.20;1.00;;;;;;5093195;28;20176;-85
2021/09/30 13:09:35;;;;;;;8.70;1.63;;;16.30;1.00;;;;;;5075410;28;20555;-84
2021/09/30 13:12:14;;;;;;;8.50;2.10;;;16.40;1.00;;;;;;5093482;28;20212;-84
2021/09/30 13:14:50;;;;;;;8.33;3.60;;;16.50;1.00;;;;;;5075036;28;20171;-85
2021/09/30 13:17:19;;;;;;;10.80;2.27;;;16.50;1.00;;;;;;5092731;28;20198;-85
2021/09/30 13:19:59;;;;;;;13.30;2.23;;;16.70;1.00;;;;;;5092582;28;20168;-85
2021/09/30 13:22:30;;;;;;;8.17;1.83;;;16.70;1.00;;;;;;5092670;28;20244;-84
2021/09/30 13:24:57;;;;;;;6.43;1.90;;;16.70;1.00;;;;;;5075873;28;20212;-85
2021/09/30 13:27:27;;;;;;;8.43;1.97;;;16.70;1.00;;;;;;5092689;28;20191;-84
2021/09/30 13:29:53;;;;;;;9.30;2.53;;;16.70;1.00;;;;;;5074828;28;20175;-85
2021/09/30 13:32:20;;;;;;;8.00;2.47;;;16.70;1.00;;;;;;5074531;28;20646;-85
2021/09/30 13:34:46;;;;;;;7.27;2.77;;;16.80;1.00;;;;;;5092804;28;20256;-84
2021/09/30 13:37:12;;;;;;;8.37;2.50;;;16.90;1.00;;;;;;5074598;28;20229;-84
2021/09/30 13:39:38;;;;;;;10.83;3.27;;;16.80;1.00;;;;;;5093031;28;20179;-85
2021/09/30 13:42:05;;;;;;;6.63;2.20;;;16.90;1.00;;;;;;5092941;28;20199;-83
2021/09/30 13:44:31;;;;;;;7.80;2.57;;;17.00;1.00;;;;;;5075142;28;20167;-85
2021/09/30 13:46:57;;;;;;;6.57;2.37;;;17.10;1.00;;;;;;5091896;28;20171;-85
2021/09/30 13:49:23;;;;;;;11.33;2.80;;;17.10;1.00;;;;;;5074074;28;20178;-84
2021/09/30 13:51:49;;;;;;;11.43;2.87;;;16.90;1.00;;;;;;5074904;28;20252;-85
2021/09/30 13:54:24;;;;;;;7.53;3.10;;;16.90;1.00;;;;;;5091670;28;20638;-85
2021/09/30 13:56:50;;;;;;;8.57;2.67;;;16.80;1.00;;;;;;5094650;28;20224;-86
2021/09/30 13:59:16;;;;;;;8.93;2.83;;;16.70;1.00;;;;;;5074917;28;20209;-85
2021/09/30 14:01:42;;;;;;;9.03;2.70;;;16.80;1.00;;;;;;5073609;28;20209;-84
2021/09/30 14:04:08;;;;;;;7.40;2.73;;;16.80;1.00;;;;;;5075113;28;20174;-86
2021/09/30 14:06:33;;;;;;;8.30;2.60;;;16.70;1.00;;;;;;5093081;28;20221;-86
2021/09/30 14:08:59;;;;;;;7.73;2.37;;;16.60;1.00;;;;;;5092813;28;20264;-84
2021/09/30 14:11:25;;;;;;;6.17;1.97;;;16.60;1.00;;;;;;5092429;28;20657;-84
2021/09/30 14:13:53;;;;;;;6.63;2.00;;;16.70;1.00;;;;;;5075304;28;20159;-85
2021/09/30 14:16:24;;;;;;;12.57;2.47;;;16.60;1.00;;;;;;5092912;28;20665;-85
2021/09/30 14:18:51;;;;;;;7.93;2.87;;;16.50;1.00;;;;;;5077672;28;20171;-85
2021/09/30 14:21:17;;;;;;;6.70;2.13;;;16.50;1.00;;;;;;5079022;28;20206;-85
2021/09/30 14:23:43;;;;;;;5.83;1.97;;;16.50;1.00;;;;;;5097296;28;20279;-85
2021/09/30 14:26:09;;;;;;;8.00;2.10;;;16.50;1.00;;;;;;5078764;28;20641;-84
2021/09/30 14:28:35;;;;;;;10.27;2.17;;;16.50;1.00;;;;;;5078504;28;20196;-85
2021/09/30 14:31:01;;;;;;;9.17;2.37;;;16.40;1.00;;;;;;5080390;28;20666;-84
2021/09/30 14:33:28;;;;;;;10.20;2.87;;;16.30;1.00;;;;;;5111567;28;20177;-84
2021/09/30 14:35:54;;;;;;;7.37;2.03;;;16.20;1.00;;;;;;5089992;28;20194;-84
2021/09/30 14:38:23;;;;;;;9.20;2.30;;;16.10;1.00;;;;;;5079588;28;20183;-85
2021/09/30 14:40:50;;;;;;;6.73;2.10;;;16.10;1.00;;;;;;5072839;28;20213;-85
2021/09/30 14:43:18;;;;;;;9.43;2.37;;;16.10;1.00;;;;;;5093554;28;20183;-83
2021/09/30 14:45:44;;;;;;;6.47;2.10;;;16.20;1.00;;;;;;5083076;28;20185;-84
2021/09/30 14:48:10;;;;;;;8.87;2.43;;;16.20;1.00;;;;;;5074319;28;20168;-83
2021/09/30 14:50:38;;;;;;;6.97;2.07;;;16.10;1.00;;;;;;5085484;28;20226;-84
2021/09/30 14:53:04;;;;;;;4.50;1.77;;;16.10;1.00;;;;;;5090349;28;20182;-83
2021/09/30 14:55:31;;;;;;;6.50;1.77;;;16.10;1.00;;;;;;5095098;28;20211;-84
2021/09/30 14:57:56;;;;;;;5.07;2.00;;;16.20;1.00;;;;;;5102283;28;20677;-84
2021/09/30 15:00:25;;;;;;;5.80;1.73;;;16.40;1.00;;;;;;5083173;28;20280;-84
2021/09/30 15:02:51;;;;;;;6.53;1.73;;;16.20;1.00;;;;;;5078879;28;20184;-83
2021/09/30 15:05:17;;;;;;;5.27;1.40;;;16.20;1.00;;;;;;5093427;28;20175;-83
2021/09/30 15:07:44;;;;;;;8.03;1.93;;;16.30;1.00;;;;;;5079333;28;20176;-85
2021/09/30 15:10:13;;;;;;;8.60;1.80;;;16.30;1.00;;;;;;5094063;28;20263;-84
2021/09/30 15:12:40;;;;;;;9.93;2.37;;;16.20;1.00;;;;;;5080877;28;20190;-83
2021/09/30 15:15:11;;;;;;;5.30;1.90;;;16.20;1.00;;;;;;5070182;28;20272;-85
2021/09/30 15:22:37;;;;;;;8.73;2.03;;;16.40;1.00;;;;;;5083513;28;20674;-85
2021/09/30 15:25:05;;;;;;;7.13;1.73;;;16.40;1.00;;;;;;5076229;28;20180;-85
2021/09/30 15:27:33;;;;;;;5.40;2.13;;;16.40;1.00;;;;;;5070647;28;20256;-85
2021/09/30 15:30:04;;;;;;;9.87;2.80;;;16.40;1.00;;;;;;5079917;28;20184;-86
2021/09/30 15:32:30;;;;;;;6.97;2.40;;;16.30;1.00;;;;;;5083902;28;20178;-87
2021/09/30 15:34:56;;;;;;;7.23;2.17;;;16.40;1.00;;;;;;5083440;28;20202;-87
2021/09/30 15:37:22;;;;;;;6.93;2.13;;;16.40;1.00;;;;;;5079466;28;20199;-85
2021/09/30 15:39:48;;;;;;;8.40;1.87;;;16.40;1.00;;;;;;5075184;28;20183;-84
2021/09/30 15:42:17;;;;;;;10.17;2.10;;;16.20;1.00;;;;;;5096184;28;20191;-85
2021/09/30 15:44:43;;;;;;;10.00;2.50;;;16.20;1.00;;;;;;5081647;28;20555;-86
2021/09/30 15:47:09;;;;;;;6.60;1.90;;;16.20;1.00;;;;;;5098311;28;20178;-88
2021/09/30 15:49:35;;;;;;;7.63;2.30;;;16.20;1.00;;;;;;5088562;28;20171;-86
2021/09/30 15:52:01;;;;;;;7.60;2.60;;;16.10;1.00;;;;;;5090205;28;20224;-86
2021/09/30 15:54:32;;;;;;;5.50;2.50;;;16.10;1.00;;;;;;5106493;28;20182;-84